Flight Track Log - Related Links

Times and Time Zones

All times are in EDT time to prevent confusion due to time zone crossing. See the DAL1550 flight status page for this flight to view local times or setup timezone preferences in your user account.

Time Position Orientation Groundspeed Altitude Reporting Facility
EDT Latitude Longitude Course Direction KTS MPH feet Rate Location/Type
Tue 10:27:28 AM 36.0753 -115.1844 94° East 198 228 3,200  Level Los Angeles Center
Tue 10:28:40 AM 36.0842 -115.2747 277° West 245 282 5,800 2,038 Climbing Los Angeles Center
Tue 10:29:14 AM 36.1056 -115.2894 331° Northwest 249 287 6,800 2,618 Climbing Los Angeles Center
Tue 10:29:35 AM 36.1419 -115.2928 356° North 254 292 8,200 3,097 Climbing Los Angeles Center
Tue 10:30:00 AM 36.1834 -115.0097 90° East  Level FlightAware Approximate
Tue 10:30:16 AM 36.1761 -115.2464 48° Northeast 266 306 10,000  Level Los Angeles Center
Tue 10:30:42 AM 36.1864 -115.2092 71° East 279 321 10,500 1,082 Climbing Los Angeles Center
Tue 10:31:00 AM 36.1897 -114.8387 80° East  Level FlightAware Approximate
Tue 10:31:17 AM 36.1992 -115.1469 76° East 303 349 11,100  Level Los Angeles Center
Tue 10:32:00 AM 36.1939 -114.6684 94° East  Level FlightAware Approximate
Tue 10:32:20 AM 36.1986 -115.0203 90° East 366 421 12,500  Level Los Angeles Center
Tue 10:33:21 AM 36.1986 -114.8814 90° East 401 461 14,200 1,659 Climbing Los Angeles Center
Tue 10:34:23 AM 36.2000 -114.7328 89° East 428 493 15,900 1,707 Climbing Los Angeles Center
Tue 10:35:24 AM 36.1983 -114.6108 91° East 441 507 17,700 2,293 Climbing Los Angeles Center
Tue 10:36:26 AM 36.1956 -114.3928 91° East 453 521 20,600 2,129 Climbing Los Angeles Center
Tue 10:37:28 AM 36.2106 -114.2336 83° East 471 542 22,100 1,452 Climbing Los Angeles Center
Tue 10:38:30 AM 36.2969 -114.1125 48° Northeast 475 547 23,600 1,452 Climbing Los Angeles Center
Tue 10:39:32 AM 36.3775 -113.9811 53° Northeast 481 554 25,100 1,694 Climbing Los Angeles Center
Tue 10:40:34 AM 36.4550 -113.8442 55° Northeast 485 558 27,100 1,902 Climbing Los Angeles Center
Tue 10:41:35 AM 36.5339 -113.7036 55° Northeast 475 547 29,000 1,561 Climbing Los Angeles Center
Tue 10:42:37 AM 36.6100 -113.5717 54° Northeast 471 542 30,300 968 Climbing Los Angeles Center
Tue 10:43:39 AM 36.6856 -113.4397 54° Northeast 469 540 31,000 339 Climbing Los Angeles Center
Tue 10:44:41 AM 36.7608 -113.3075 55° Northeast 469 540 31,000  Level Los Angeles Center
Tue 10:45:43 AM 36.8500 -113.1469 55° Northeast 471 542 31,000  Level Los Angeles Center
Tue 10:46:45 AM 36.9253 -113.0147 55° Northeast 470 541 31,000  Level Los Angeles Center
Tue 10:47:47 AM 36.9994 -112.8808 55° Northeast 471 542 31,000  Level Los Angeles Center
Tue 10:48:48 AM 37.0736 -112.7469 55° Northeast 472 543 31,000  Level Los Angeles Center
Tue 10:49:50 AM 37.1481 -112.6131 55° Northeast 473 544 31,000  Level Los Angeles Center
Tue 10:50:52 AM 37.2372 -112.4522 55° Northeast 473 544 31,000  Level Los Angeles Center
Tue 10:51:54 AM 37.3100 -112.3169 56° Northeast 472 543 31,000  Level Los Angeles Center
Tue 10:52:56 AM 37.3828 -112.1817 56° Northeast 472 543 31,000  Level Los Angeles Center
Tue 10:53:49 AM 37.4408 -112.0733 56° Northeast 472 543 31,000  Level Salt Lake Center
Tue 10:54:50 AM 37.5294 -111.9083 56° Northeast 477 549 31,000  Level Salt Lake Center
Tue 10:55:25 AM 37.5600 -111.8519 56° Northeast 480 552 31,000  Level Denver Center
Tue 10:56:27 AM 37.6486 -111.6869 56° Northeast 475 547 31,000  Level Denver Center
Tue 10:56:54 AM 37.6772 -111.6311 57° Northeast 476 548 31,000  Level Salt Lake Center
Tue 10:57:56 AM 37.7514 -111.4944 56° Northeast 474 545 31,000  Level Salt Lake Center
Tue 10:58:58 AM 37.8258 -111.3539 56° Northeast 480 552 31,000  Level Salt Lake Center
Tue 10:59:59 AM 37.8989 -111.2147 56° Northeast 478 550 31,000  Level Salt Lake Center
Tue 11:01:01 AM 37.9892 -111.0458 56° Northeast 481 554 31,000  Level Salt Lake Center
Tue 11:01:37 AM 38.0322 -110.9606 57° Northeast 482 555 31,000  Level Denver Center
Tue 11:02:39 AM 38.1094 -110.8156 56° Northeast 486 559 31,000  Level Denver Center
Tue 11:03:05 AM 38.1328 -110.7697 57° Northeast 487 560 31,000  Level Salt Lake Center
Tue 11:04:06 AM 38.2133 -110.6106 57° Northeast 482 555 31,000  Level Salt Lake Center
Tue 11:04:44 AM 38.2606 -110.5181 57° Northeast 486 559 31,000  Level Denver Center
Tue 11:05:46 AM 38.3311 -110.3808 57° Northeast 486 559 31,000  Level Denver Center
Tue 11:06:48 AM 38.4139 -110.2189 57° Northeast 489 563 31,000  Level Denver Center
Tue 11:07:12 AM 38.4383 -110.1736 55° Northeast 490 564 31,000  Level Salt Lake Center
Tue 11:07:50 AM 38.4842 -110.0797 58° Northeast 490 564 31,000  Level Denver Center
Tue 11:08:52 AM 38.5656 -109.9181 57° Northeast 487 560 31,000  Level Denver Center
Tue 11:10:06 AM 38.6486 -109.7564 57° Northeast 489 563 31,000 441 Level Denver Center
Tue 11:11:08 AM 38.7314 -109.5925 57° Northeast 492 566 32,000 968 Climbing Denver Center
Tue 11:12:10 AM 38.7997 -109.4478 59° Northeast 494 568 33,000 484 Climbing Denver Center
Tue 11:13:12 AM 38.8814 -109.2858 57° Northeast 489 563 33,000  Level Denver Center
Tue 11:14:14 AM 38.9508 -109.1447 58° Northeast 490 564 33,000  Level Denver Center
Tue 11:15:16 AM 39.0328 -108.9786 58° Northeast 495 570 33,000  Level Denver Center
Tue 11:16:18 AM 39.1019 -108.8372 58° Northeast 491 565 33,000  Level Denver Center
Tue 11:17:21 AM 39.1822 -108.6714 58° Northeast 493 567 33,000  Level Denver Center
Tue 11:18:22 AM 39.2517 -108.5286 58° Northeast 496 571 33,000  Level Denver Center
Tue 11:19:24 AM 39.3317 -108.3619 58° Northeast 495 570 33,000  Level Denver Center
Tue 11:20:26 AM 39.4006 -108.2172 58° Northeast 492 566 33,000  Level Denver Center
Tue 11:21:28 AM 39.4819 -108.0478 58° Northeast 498 573 33,000  Level Denver Center
Tue 11:22:30 AM 39.5517 -107.9017 58° Northeast 501 577 33,000  Level Denver Center
Tue 11:23:32 AM 39.6317 -107.7314 59° Northeast 499 574 33,000  Level Denver Center
Tue 11:24:35 AM 39.7003 -107.5825 59° Northeast 502 578 33,000  Level Denver Center
Tue 11:25:37 AM 39.7811 -107.4100 59° Northeast 503 579 33,000  Level Denver Center
Tue 11:26:39 AM 39.8500 -107.2617 59° Northeast 501 577 33,000  Level Denver Center
Tue 11:27:41 AM 39.9197 -107.1125 59° Northeast 501 577 33,000  Level Denver Center
Tue 11:28:43 AM 39.9994 -106.9400 59° Northeast 501 577 33,000  Level Denver Center
Tue 11:29:45 AM 40.0792 -106.7661 59° Northeast 501 577 33,000  Level Denver Center
Tue 11:30:47 AM 40.1475 -106.6158 59° Northeast 504 580 33,000  Level Denver Center
Tue 11:31:49 AM 40.2269 -106.4406 59° Northeast 500 575 33,000  Level Denver Center
Tue 11:32:51 AM 40.2944 -106.2911 59° Northeast 500 575 33,000  Level Denver Center
Tue 11:33:53 AM 40.3633 -106.1350 60° Northeast 499 574 33,000  Level Denver Center
Tue 11:34:55 AM 40.4364 -105.9764 59° Northeast 505 581 33,000  Level Denver Center
Tue 11:35:57 AM 40.5217 -105.7814 60° Northeast 512 589 33,000  Level Denver Center
Tue 11:36:59 AM 40.5903 -105.6178 61° Northeast 511 588 33,000 -48 Level Denver Center
Tue 11:38:00 AM 40.6461 -105.4632 65° Northeast  Level FlightAware Approximate
Tue 11:38:01 AM 40.6583 -105.4569 65° Northeast 505 581 32,900  Level Denver Center
Tue 11:39:03 AM 40.7339 -105.2875 59° Northeast 505 581 33,000 48 Climbing Denver Center
Tue 11:40:05 AM 40.8014 -105.1314 60° Northeast 510 587 33,000  Level Denver Center
Tue 11:41:07 AM 40.8814 -104.9550 59° Northeast 507 583 33,000  Level Denver Center
Tue 11:42:09 AM 40.9481 -104.7983 61° Northeast 511 588 33,000  Level Denver Center
Tue 11:43:11 AM 41.0250 -104.6167 61° Northeast 510 587 33,000  Level Denver Center
Tue 11:44:13 AM 41.0922 -104.4597 60° Northeast 513 590 33,000  Level Denver Center
Tue 11:45:15 AM 41.1706 -104.2775 60° Northeast 512 589 33,000  Level Denver Center
Tue 11:46:17 AM 41.2378 -104.1192 61° Northeast 515 593 33,000  Level Denver Center
Tue 11:47:20 AM 41.3150 -103.9353 61° Northeast 511 588 33,000  Level Denver Center
Tue 11:48:22 AM 41.3794 -103.7792 61° Northeast 506 582 33,000  Level Denver Center
Tue 11:49:24 AM 41.4550 -103.5939 61° Northeast 509 586 33,000  Level Denver Center
Tue 11:50:26 AM 41.5194 -103.4356 61° Northeast 510 587 33,000  Level Denver Center
Tue 11:51:28 AM 41.5964 -103.2475 61° Northeast 516 594 33,000  Level Denver Center
Tue 11:52:30 AM 41.6611 -103.0867 62° Northeast 515 593 33,000  Level Denver Center
Tue 11:53:32 AM 41.7367 -102.8992 62° Northeast 516 594 33,000  Level Denver Center
Tue 11:54:34 AM 41.8000 -102.7389 62° Northeast 512 589 33,000  Level Denver Center
Tue 11:55:36 AM 41.8750 -102.5514 62° Northeast 512 589 33,000  Level Denver Center
Tue 11:56:38 AM 41.9392 -102.3897 62° Northeast 514 592 33,000  Level Denver Center
Tue 11:57:40 AM 41.9981 -102.1947 68° East 513 590 33,000  Level Denver Center
Tue 11:58:42 AM 42.0294 -102.0167 77° East 513 590 33,000  Level Denver Center
Tue 11:59:44 AM 42.0597 -101.8058 79° East 513 590 33,000  Level Denver Center
Tue 12:00:46 PM 42.0847 -101.6258 79° East 511 588 33,000  Level Denver Center
Tue 12:01:48 PM 42.1106 -101.4447 79° East 513 590 33,000  Level Denver Center
Tue 12:02:50 PM 42.1406 -101.2336 79° East 512 589 33,000  Level Denver Center
Tue 12:03:52 PM 42.1664 -101.0528 79° East 512 589 33,000  Level Denver Center
Tue 12:04:54 PM 42.1967 -100.8425 79° East 512 589 33,000  Level Denver Center
Tue 12:05:56 PM 42.2214 -100.6625 79° East 509 586 33,000  Level Denver Center
Tue 12:06:58 PM 42.2494 -100.4519 80° East 510 587 33,000  Level Denver Center
Tue 12:08:00 PM 42.2736 -100.2708 80° East 512 589 33,000  Level Denver Center
Tue 12:09:02 PM 42.3003 -100.0614 80° East 509 586 33,000  Level Denver Center
Tue 12:10:04 PM 42.3236 -99.8833 80° East 504 580 33,000  Level Denver Center
Tue 12:11:06 PM 42.3508 -99.6750 80° East 506 582 33,000  Level Denver Center
Tue 12:12:08 PM 42.3714 -99.5064 81° East 510 587 33,000  Level Denver Center
Tue 12:13:10 PM 42.3947 -99.3189 80° East 506 582 33,000  Level Denver Center
Tue 12:13:25 PM 42.4039 -99.2444 81° East 507 583 33,000  Level Minneapolis Center
Tue 12:14:27 PM 42.4267 -99.0536 81° East 510 587 33,000  Level Minneapolis Center
Tue 12:15:29 PM 42.4497 -98.8653 81° East 507 583 33,000  Level Minneapolis Center
Tue 12:16:30 PM 42.4806 -98.6783 77° East 510 587 33,000  Level Minneapolis Center
Tue 12:17:32 PM 42.5633 -98.5264 53° Northeast 505 581 33,000  Level Minneapolis Center
Tue 12:18:34 PM 42.6514 -98.3794 51° Northeast 501 577 33,000  Level Minneapolis Center
Tue 12:19:35 PM 42.7486 -98.2139 51° Northeast 503 579 33,000  Level Minneapolis Center
Tue 12:20:37 PM 42.8347 -98.0636 52° Northeast 504 580 33,000  Level Minneapolis Center
Tue 12:21:39 PM 42.9222 -97.9144 51° Northeast 505 581 33,000  Level Minneapolis Center
Tue 12:22:40 PM 43.0089 -97.7658 51° Northeast 504 580 33,000  Level Minneapolis Center
Tue 12:23:42 PM 43.0961 -97.6139 52° Northeast 508 585 33,000  Level Minneapolis Center
Tue 12:24:44 PM 43.2008 -97.4294 52° Northeast 511 588 33,000  Level Minneapolis Center
Tue 12:25:45 PM 43.2864 -97.2764 52° Northeast 508 585 33,000  Level Minneapolis Center
Tue 12:26:47 PM 43.3733 -97.1236 52° Northeast 509 586 33,000  Level Minneapolis Center
Tue 12:27:49 PM 43.4603 -96.9714 52° Northeast 508 585 33,000  Level Minneapolis Center
Tue 12:28:50 PM 43.5483 -96.8192 51° Northeast 511 588 33,000  Level Minneapolis Center
Tue 12:29:52 PM 43.6344 -96.6653 52° Northeast 508 585 33,000  Level Minneapolis Center
Tue 12:30:54 PM 43.7211 -96.5103 52° Northeast 512 589 33,000  Level Minneapolis Center
Tue 12:31:55 PM 43.8236 -96.3253 52° Northeast 510 587 33,000  Level Minneapolis Center
Tue 12:32:57 PM 43.9094 -96.1700 52° Northeast 512 589 33,000  Level Minneapolis Center
Tue 12:33:59 PM 43.9939 -96.0158 53° Northeast 512 589 33,000  Level Minneapolis Center
Tue 12:35:01 PM 44.0789 -95.8611 53° Northeast 513 590 33,000  Level Minneapolis Center
Tue 12:36:02 PM 44.1633 -95.7044 53° Northeast 513 590 33,000 -780 Level Minneapolis Center
Tue 12:37:04 PM 44.2647 -95.5153 53° Northeast 512 589 31,400 -2,419 Descending Minneapolis Center
Tue 12:38:06 PM 44.3503 -95.3547 53° Northeast 516 594 28,000 -3,387 Descending Minneapolis Center
Tue 12:39:08 PM 44.4369 -95.1900 54° Northeast 525 604 24,400 -2,976 Descending Minneapolis Center
Tue 12:40:09 PM 44.4983 -95.0131 64° Northeast 511 588 21,900 -2,439 Descending Minneapolis Center
Tue 12:41:11 PM 44.5400 -94.8325 72° East 495 570 19,400 -2,565 Descending Minneapolis Center
Tue 12:42:13 PM 44.5808 -94.6578 72° East 479 551 16,600 -2,471 Descending Minneapolis Center
Tue 12:43:27 PM 44.6269 -94.4539 72° East 444 511 13,800 -2,338 Descending Minneapolis Center
Tue 12:44:29 PM 44.6631 -94.2958 72° East 430 495 11,300 -1,366 Descending Minneapolis Center
Tue 12:45:30 PM 44.7039 -94.1069 73° East 421 484 11,000 -146 Descending Minneapolis Center
Tue 12:46:32 PM 44.7386 -93.9517 72° East 418 481 11,000  Level Minneapolis Center
Tue 12:47:34 PM 44.7736 -93.7989 72° East 412 474 11,000 -387 Level Minneapolis Center
Tue 12:48:36 PM 44.8056 -93.6533 73° East 390 449 10,200 -976 Descending Minneapolis Center
Tue 12:49:37 PM 44.8336 -93.5253 73° East 342 394 9,000 -1,073 Descending Minneapolis Center
Tue 12:50:39 PM 44.8608 -93.3986 73° East 336 387 8,000 -532 Descending Minneapolis Center
Tue 12:51:41 PM 44.8353 -93.2964 109° East 296 341 7,900 -1,258 Descending Minneapolis Center
Tue 12:53:45 PM 44.6814 -93.2853 177° South 277 319 4,100 -1,419 Descending Minneapolis Center
Tue 12:54:47 PM 44.6889 -93.2006 83° East 248 285 3,500 -484 Descending Minneapolis Center
Tue 12:55:49 PM 44.7503 -93.2064 356° North 186 214 3,100 -387 Descending Minneapolis Center

Login

Don't have an account? Register now (free) for customized features, flight alerts, and more!